Alston, Georgia
Current Conditions -  °F | °C
As of 2:55 AM on Sunday 26 Oct 2014 (Local Time) from KVDI Reporting Station
Clear Clear  
Wind Chill: 55°   Ceiling: Unl
Heat Index: 55°   Visibility: 10mi
Dew Point: 50°   Wind: 3mph
Humidity: 82%   Direction: 240°WSW
Pressure: 29.97"   Gusts: NA
Location:  32.08°N, 82.48°W
Report Text: KVDI 260655Z AUTO 24003KT 10SM CLR 13/10 A2997 RMK AO2
Loading
Personal Weather Stations






























Interactive Weather Map
Tropical Storm Tracking
New forecast layout! Learn more

10-Day Weather Forecast

Advertisements
Track Severe Weather on mobile